sensor_id;sensor_type;location;lat;lon;timestamp;pressure;altitude;pressure_sealevel;temperature;humidity
40596;BME280;26304;48.794;9.820;2023-07-31T00:02:48;96460.91;;;18.87;56.93
40596;BME280;26304;48.794;9.820;2023-07-31T00:08:32;96458.28;;;18.91;57.22
40596;BME280;26304;48.794;9.820;2023-07-31T00:14:14;96465.75;;;18.81;57.26
40596;BME280;26304;48.794;9.820;2023-07-31T00:19:56;96462.72;;;18.79;57.79
40596;BME280;26304;48.794;9.820;2023-07-31T00:25:41;96458.97;;;18.80;57.56
40596;BME280;26304;48.794;9.820;2023-07-31T00:31:25;96454.53;;;18.84;57.91
40596;BME280;26304;48.794;9.820;2023-07-31T00:37:08;96451.09;;;18.84;57.93
40596;BME280;26304;48.794;9.820;2023-07-31T00:42:51;96442.00;;;18.74;57.99
40596;BME280;26304;48.794;9.820;2023-07-31T00:48:35;96451.78;;;18.70;57.77
40596;BME280;26304;48.794;9.820;2023-07-31T00:54:18;96454.00;;;18.68;57.46
40596;BME280;26304;48.794;9.820;2023-07-31T01:00:02;96454.38;;;18.63;58.05
40596;BME280;26304;48.794;9.820;2023-07-31T01:05:49;96446.03;;;18.50;58.42
40596;BME280;26304;48.794;9.820;2023-07-31T01:11:38;96440.41;;;18.55;58.34
40596;BME280;26304;48.794;9.820;2023-07-31T01:17:25;96439.25;;;18.49;58.08
40596;BME280;26304;48.794;9.820;2023-07-31T01:23:29;96436.94;;;18.40;58.36
40596;BME280;26304;48.794;9.820;2023-07-31T01:29:23;96440.69;;;18.39;58.26
40596;BME280;26304;48.794;9.820;2023-07-31T01:35:07;96425.22;;;18.30;58.55
40596;BME280;26304;48.794;9.820;2023-07-31T01:40:51;96418.78;;;18.24;58.64
40596;BME280;26304;48.794;9.820;2023-07-31T01:46:35;96414.34;;;18.32;58.65
40596;BME280;26304;48.794;9.820;2023-07-31T01:52:18;96410.16;;;18.27;58.79
40596;BME280;26304;48.794;9.820;2023-07-31T01:58:00;96406.34;;;18.18;58.86
40596;BME280;26304;48.794;9.820;2023-07-31T02:03:44;96402.94;;;18.13;59.61
40596;BME280;26304;48.794;9.820;2023-07-31T02:09:26;96398.09;;;18.23;59.43
40596;BME280;26304;48.794;9.820;2023-07-31T02:15:09;96396.22;;;18.20;59.30
40596;BME280;26304;48.794;9.820;2023-07-31T02:20:53;96389.38;;;18.08;59.42
40596;BME280;26304;48.794;9.820;2023-07-31T02:26:35;96382.63;;;18.14;59.30
40596;BME280;26304;48.794;9.820;2023-07-31T02:32:18;96379.13;;;17.92;59.86
40596;BME280;26304;48.794;9.820;2023-07-31T02:38:02;96371.28;;;17.99;59.88
40596;BME280;26304;48.794;9.820;2023-07-31T02:43:44;96376.22;;;18.08;59.84
40596;BME280;26304;48.794;9.820;2023-07-31T02:49:26;96370.44;;;17.88;60.16
40596;BME280;26304;48.794;9.820;2023-07-31T02:55:10;96381.78;;;17.99;59.60
40596;BME280;26304;48.794;9.820;2023-07-31T03:00:53;96366.34;;;17.90;60.18
40596;BME280;26304;48.794;9.820;2023-07-31T03:06:35;96357.69;;;17.90;60.15
40596;BME280;26304;48.794;9.820;2023-07-31T03:12:19;96358.34;;;17.79;61.14
40596;BME280;26304;48.794;9.820;2023-07-31T03:18:01;96344.81;;;17.77;61.29
40596;BME280;26304;48.794;9.820;2023-07-31T03:23:44;96350.47;;;17.87;61.34
40596;BME280;26304;48.794;9.820;2023-07-31T03:29:27;96348.31;;;17.96;61.67
40596;BME280;26304;48.794;9.820;2023-07-31T03:35:10;96348.22;;;17.37;62.39
40596;BME280;26304;48.794;9.820;2023-07-31T03:40:52;96349.66;;;17.31;62.44
40596;BME280;26304;48.794;9.820;2023-07-31T03:46:36;96347.97;;;17.12;63.11
40596;BME280;26304;48.794;9.820;2023-07-31T03:52:18;96341.19;;;17.07;63.42
40596;BME280;26304;48.794;9.820;2023-07-31T03:58:01;96351.25;;;16.98;63.66
40596;BME280;26304;48.794;9.820;2023-07-31T04:03:44;96351.59;;;16.96;64.04
40596;BME280;26304;48.794;9.820;2023-07-31T04:09:27;96355.00;;;17.00;64.14
40596;BME280;26304;48.794;9.820;2023-07-31T04:15:09;96352.31;;;16.93;64.87
40596;BME280;26304;48.794;9.820;2023-07-31T04:20:53;96343.13;;;16.80;65.35
40596;BME280;26304;48.794;9.820;2023-07-31T04:26:36;96342.53;;;16.90;64.92
40596;BME280;26304;48.794;9.820;2023-07-31T04:32:18;96358.50;;;17.12;64.07
40596;BME280;26304;48.794;9.820;2023-07-31T04:38:03;96349.25;;;17.70;62.22
40596;BME280;26304;48.794;9.820;2023-07-31T04:43:45;96338.69;;;17.66;62.66
40596;BME280;26304;48.794;9.820;2023-07-31T04:49:28;96334.66;;;17.79;61.88
40596;BME280;26304;48.794;9.820;2023-07-31T04:55:11;96328.81;;;17.97;61.80
40596;BME280;26304;48.794;9.820;2023-07-31T05:00:54;96329.91;;;17.96;61.68
40596;BME280;26304;48.794;9.820;2023-07-31T05:06:36;96339.78;;;18.10;61.09
40596;BME280;26304;48.794;9.820;2023-07-31T05:12:20;96334.16;;;18.11;61.39
40596;BME280;26304;48.794;9.820;2023-07-31T05:18:03;96333.41;;;18.11;60.76
40596;BME280;26304;48.794;9.820;2023-07-31T05:23:45;96331.97;;;18.28;61.06
40596;BME280;26304;48.794;9.820;2023-07-31T05:29:30;96339.91;;;18.35;61.42
40596;BME280;26304;48.794;9.820;2023-07-31T05:35:12;96334.66;;;18.42;60.99
40596;BME280;26304;48.794;9.820;2023-07-31T05:40:55;96345.19;;;18.39;61.07
40596;BME280;26304;48.794;9.820;2023-07-31T05:46:38;96329.41;;;18.42;60.69
40596;BME280;26304;48.794;9.820;2023-07-31T05:52:21;96335.44;;;18.43;61.96
40596;BME280;26304;48.794;9.820;2023-07-31T05:58:03;96336.88;;;18.33;62.49
40596;BME280;26304;48.794;9.820;2023-07-31T06:03:47;96339.97;;;18.49;60.82
40596;BME280;26304;48.794;9.820;2023-07-31T06:09:29;96332.47;;;18.51;60.75
40596;BME280;26304;48.794;9.820;2023-07-31T06:15:12;96330.19;;;18.54;60.43
40596;BME280;26304;48.794;9.820;2023-07-31T06:20:55;96320.44;;;18.54;60.64
40596;BME280;26304;48.794;9.820;2023-07-31T06:26:38;96316.66;;;18.55;60.96
40596;BME280;26304;48.794;9.820;2023-07-31T06:32:20;96319.31;;;18.59;60.64
40596;BME280;26304;48.794;9.820;2023-07-31T06:38:04;96324.97;;;18.61;60.49
40596;BME280;26304;48.794;9.820;2023-07-31T06:43:47;96326.13;;;18.67;60.83
40596;BME280;26304;48.794;9.820;2023-07-31T06:49:29;96332.88;;;18.68;60.84
40596;BME280;26304;48.794;9.820;2023-07-31T06:55:20;96334.78;;;18.67;60.94
40596;BME280;26304;48.794;9.820;2023-07-31T07:01:02;96334.03;;;18.74;60.53
40596;BME280;26304;48.794;9.820;2023-07-31T07:06:45;96336.31;;;18.76;60.86
40596;BME280;26304;48.794;9.820;2023-07-31T07:12:29;96329.94;;;18.80;61.01
40596;BME280;26304;48.794;9.820;2023-07-31T07:18:12;96322.78;;;18.81;60.75
40596;BME280;26304;48.794;9.820;2023-07-31T07:23:55;96325.81;;;18.83;60.89
40596;BME280;26304;48.794;9.820;2023-07-31T07:29:39;96317.50;;;18.81;61.32
40596;BME280;26304;48.794;9.820;2023-07-31T07:35:21;96318.66;;;18.80;62.13
40596;BME280;26304;48.794;9.820;2023-07-31T07:41:03;96320.50;;;18.79;62.56
40596;BME280;26304;48.794;9.820;2023-07-31T07:46:47;96320.94;;;18.85;62.42
40596;BME280;26304;48.794;9.820;2023-07-31T07:52:30;96302.53;;;18.99;61.01
40596;BME280;26304;48.794;9.820;2023-07-31T07:58:12;96304.41;;;19.02;60.85
40596;BME280;26304;48.794;9.820;2023-07-31T08:03:56;96312.69;;;19.04;60.73
40596;BME280;26304;48.794;9.820;2023-07-31T08:09:38;96304.41;;;19.06;60.82
40596;BME280;26304;48.794;9.820;2023-07-31T08:15:21;96301.41;;;19.08;60.92
40596;BME280;26304;48.794;9.820;2023-07-31T08:21:05;96307.06;;;19.10;60.70
40596;BME280;26304;48.794;9.820;2023-07-31T08:26:47;96300.28;;;19.12;60.51
40596;BME280;26304;48.794;9.820;2023-07-31T08:32:30;96291.63;;;19.12;60.78
40596;BME280;26304;48.794;9.820;2023-07-31T08:38:14;96279.59;;;19.18;60.56
40596;BME280;26304;48.794;9.820;2023-07-31T08:43:57;96268.69;;;19.19;60.72
40596;BME280;26304;48.794;9.820;2023-07-31T08:49:40;96266.41;;;19.21;60.61
40596;BME280;26304;48.794;9.820;2023-07-31T08:55:26;96259.63;;;19.24;60.49
40596;BME280;26304;48.794;9.820;2023-07-31T09:01:09;96257.00;;;19.28;61.59
40596;BME280;26304;48.794;9.820;2023-07-31T09:06:57;96248.34;;;19.23;61.40
40596;BME280;26304;48.794;9.820;2023-07-31T09:12:43;96261.88;;;19.26;61.48
40596;BME280;26304;48.794;9.820;2023-07-31T09:18:26;96253.63;;;19.20;61.90
40596;BME280;26304;48.794;9.820;2023-07-31T09:24:09;96259.66;;;19.28;61.51
40596;BME280;26304;48.794;9.820;2023-07-31T09:29:59;96242.34;;;19.34;60.95
40596;BME280;26304;48.794;9.820;2023-07-31T09:35:42;96245.34;;;19.36;60.88
40596;BME280;26304;48.794;9.820;2023-07-31T09:41:25;96240.81;;;19.36;61.12
40596;BME280;26304;48.794;9.820;2023-07-31T09:47:21;96241.94;;;19.53;60.92
40596;BME280;26304;48.794;9.820;2023-07-31T09:53:05;96231.34;;;19.68;60.92
40596;BME280;26304;48.794;9.820;2023-07-31T09:58:48;96222.31;;;19.76;61.09
40596;BME280;26304;48.794;9.820;2023-07-31T10:04:32;96212.84;;;19.89;60.61
40596;BME280;26304;48.794;9.820;2023-07-31T10:10:15;96203.06;;;19.75;61.05
40596;BME280;26304;48.794;9.820;2023-07-31T10:15:59;96200.06;;;19.73;61.19
40596;BME280;26304;48.794;9.820;2023-07-31T10:21:44;96209.84;;;19.84;60.69
40596;BME280;26304;48.794;9.820;2023-07-31T10:27:27;96190.59;;;19.98;61.52
40596;BME280;26304;48.794;9.820;2023-07-31T10:33:10;96183.38;;;20.09;62.03
40596;BME280;26304;48.794;9.820;2023-07-31T10:38:55;96176.59;;;20.08;61.75
40596;BME280;26304;48.794;9.820;2023-07-31T10:44:38;96168.34;;;19.99;61.85
40596;BME280;26304;48.794;9.820;2023-07-31T10:50:23;96164.19;;;20.01;61.75
40596;BME280;26304;48.794;9.820;2023-07-31T10:56:08;96172.06;;;20.12;61.56
40596;BME280;26304;48.794;9.820;2023-07-31T11:01:55;96157.00;;;20.05;61.97
40596;BME280;26304;48.794;9.820;2023-07-31T11:07:47;96147.56;;;20.08;62.05
40596;BME280;26304;48.794;9.820;2023-07-31T11:13:32;96166.38;;;20.17;61.96
40596;BME280;26304;48.794;9.820;2023-07-31T11:19:21;96165.59;;;20.20;62.17
40596;BME280;26304;48.794;9.820;2023-07-31T11:25:05;96169.44;;;20.12;62.20
40596;BME280;26304;48.794;9.820;2023-07-31T11:30:48;96159.63;;;20.09;62.22
40596;BME280;26304;48.794;9.820;2023-07-31T11:36:31;96164.91;;;20.09;62.08
40596;BME280;26304;48.794;9.820;2023-07-31T11:42:15;96149.09;;;20.09;62.07
40596;BME280;26304;48.794;9.820;2023-07-31T11:48:00;96152.47;;;20.09;61.96
40596;BME280;26304;48.794;9.820;2023-07-31T11:53:45;96145.69;;;20.12;61.96
40596;BME280;26304;48.794;9.820;2023-07-31T11:59:30;96133.97;;;20.13;62.02
40596;BME280;26304;48.794;9.820;2023-07-31T12:05:14;96131.31;;;20.13;62.01
40596;BME280;26304;48.794;9.820;2023-07-31T12:11:03;96132.84;;;20.14;61.93
40596;BME280;26304;48.794;9.820;2023-07-31T12:16:46;96115.09;;;20.14;61.98
40596;BME280;26304;48.794;9.820;2023-07-31T12:22:30;96109.44;;;20.16;62.12
40596;BME280;26304;48.794;9.820;2023-07-31T12:28:13;96092.09;;;20.15;61.87
40596;BME280;26304;48.794;9.820;2023-07-31T12:33:55;96093.59;;;20.16;61.87
40596;BME280;26304;48.794;9.820;2023-07-31T12:39:39;96080.75;;;20.18;61.89
40596;BME280;26304;48.794;9.820;2023-07-31T12:45:22;96070.59;;;20.20;62.02
40596;BME280;26304;48.794;9.820;2023-07-31T12:51:04;96068.69;;;20.21;61.90
40596;BME280;26304;48.794;9.820;2023-07-31T12:56:49;96053.59;;;20.21;62.01
40596;BME280;26304;48.794;9.820;2023-07-31T13:02:31;96057.00;;;20.22;62.10
40596;BME280;26304;48.794;9.820;2023-07-31T13:08:13;96047.53;;;20.24;61.90
40596;BME280;26304;48.794;9.820;2023-07-31T13:13:58;96050.94;;;20.25;62.01
40596;BME280;26304;48.794;9.820;2023-07-31T13:19:40;96043.78;;;20.25;61.77
40596;BME280;26304;48.794;9.820;2023-07-31T13:25:23;96040.75;;;20.27;61.84
40596;BME280;26304;48.794;9.820;2023-07-31T13:31:07;96027.56;;;20.27;61.93
40596;BME280;26304;48.794;9.820;2023-07-31T13:36:49;96023.78;;;20.28;61.91
40596;BME280;26304;48.794;9.820;2023-07-31T13:42:31;96018.50;;;20.28;61.88
40596;BME280;26304;48.794;9.820;2023-07-31T13:48:15;96024.84;;;20.38;61.97
40596;BME280;26304;48.794;9.820;2023-07-31T13:53:57;96017.88;;;20.55;62.13
40596;BME280;26304;48.794;9.820;2023-07-31T13:59:40;96023.94;;;20.55;62.77
40596;BME280;26304;48.794;9.820;2023-07-31T14:05:24;96015.97;;;20.59;63.00
40596;BME280;26304;48.794;9.820;2023-07-31T14:11:06;96019.25;;;20.74;63.01
40596;BME280;26304;48.794;9.820;2023-07-31T14:16:48;96017.25;;;20.85;62.80
40596;BME280;26304;48.794;9.820;2023-07-31T14:22:32;96014.59;;;20.89;62.24
40596;BME280;26304;48.794;9.820;2023-07-31T14:28:15;96005.44;;;20.93;62.32
40596;BME280;26304;48.794;9.820;2023-07-31T14:33:57;96021.75;;;21.22;61.16
40596;BME280;26304;48.794;9.820;2023-07-31T14:39:41;96007.38;;;21.23;61.19
40596;BME280;26304;48.794;9.820;2023-07-31T14:45:24;96010.69;;;21.31;60.94
40596;BME280;26304;48.794;9.820;2023-07-31T14:51:06;95999.31;;;21.34;60.81
40596;BME280;26304;48.794;9.820;2023-07-31T14:56:50;95984.91;;;21.39;60.76
40596;BME280;26304;48.794;9.820;2023-07-31T15:02:33;95978.03;;;21.45;60.45
40596;BME280;26304;48.794;9.820;2023-07-31T15:08:16;95974.16;;;21.53;60.45
40596;BME280;26304;48.794;9.820;2023-07-31T15:14:01;95955.56;;;21.61;60.36
40596;BME280;26304;48.794;9.820;2023-07-31T15:19:44;95962.66;;;21.67;60.62
40596;BME280;26304;48.794;9.820;2023-07-31T15:25:26;95953.50;;;21.72;60.02
40596;BME280;26304;48.794;9.820;2023-07-31T15:31:10;95950.19;;;21.91;59.97
40596;BME280;26304;48.794;9.820;2023-07-31T15:36:52;95939.09;;;21.76;60.14
40596;BME280;26304;48.794;9.820;2023-07-31T15:42:35;95929.44;;;21.63;60.43
40596;BME280;26304;48.794;9.820;2023-07-31T15:48:22;95922.97;;;21.67;60.26
40596;BME280;26304;48.794;9.820;2023-07-31T15:54:04;95915.88;;;21.84;60.20
40596;BME280;26304;48.794;9.820;2023-07-31T15:59:46;95912.66;;;21.97;59.90
40596;BME280;26304;48.794;9.820;2023-07-31T16:05:30;95911.00;;;22.06;59.78
40596;BME280;26304;48.794;9.820;2023-07-31T16:11:13;95908.69;;;22.32;58.78
40596;BME280;26304;48.794;9.820;2023-07-31T16:16:55;95902.97;;;22.34;58.41
40596;BME280;26304;48.794;9.820;2023-07-31T16:22:39;95893.59;;;22.29;59.16
40596;BME280;26304;48.794;9.820;2023-07-31T16:28:23;95884.03;;;22.35;58.67
40596;BME280;26304;48.794;9.820;2023-07-31T16:34:05;95876.72;;;22.43;58.25
40596;BME280;26304;48.794;9.820;2023-07-31T16:39:49;95881.88;;;22.30;58.73
40596;BME280;26304;48.794;9.820;2023-07-31T16:45:32;95875.91;;;22.02;60.05
40596;BME280;26304;48.794;9.820;2023-07-31T16:51:15;95861.25;;;21.98;60.32
40596;BME280;26304;48.794;9.820;2023-07-31T16:56:59;95860.59;;;21.90;60.45
40596;BME280;26304;48.794;9.820;2023-07-31T17:02:41;95854.75;;;21.79;60.41
40596;BME280;26304;48.794;9.820;2023-07-31T17:08:24;95859.41;;;21.71;60.64
40596;BME280;26304;48.794;9.820;2023-07-31T17:14:07;95859.34;;;21.74;60.31
40596;BME280;26304;48.794;9.820;2023-07-31T17:19:50;95858.66;;;21.70;60.75
40596;BME280;26304;48.794;9.820;2023-07-31T17:25:33;95856.44;;;21.69;60.68
40596;BME280;26304;48.794;9.820;2023-07-31T17:31:17;95871.59;;;21.65;60.68
40596;BME280;26304;48.794;9.820;2023-07-31T17:37:00;95851.50;;;21.44;61.66
40596;BME280;26304;48.794;9.820;2023-07-31T17:42:42;95850.75;;;21.43;61.76
40596;BME280;26304;48.794;9.820;2023-07-31T17:48:26;95841.84;;;21.33;62.25
40596;BME280;26304;48.794;9.820;2023-07-31T17:54:08;95842.72;;;21.23;62.69
40596;BME280;26304;48.794;9.820;2023-07-31T17:59:51;95850.31;;;21.21;62.82
40596;BME280;26304;48.794;9.820;2023-07-31T18:05:35;95852.69;;;21.39;61.70
40596;BME280;26304;48.794;9.820;2023-07-31T18:11:18;95852.56;;;21.50;61.24
40596;BME280;26304;48.794;9.820;2023-07-31T18:17:02;95854.06;;;21.51;61.49
40596;BME280;26304;48.794;9.820;2023-07-31T18:22:46;95851.44;;;21.47;61.38
40596;BME280;26304;48.794;9.820;2023-07-31T18:28:29;95861.69;;;21.45;61.56
40596;BME280;26304;48.794;9.820;2023-07-31T18:34:11;95851.50;;;21.44;61.72
40596;BME280;26304;48.794;9.820;2023-07-31T18:39:55;95854.13;;;21.44;61.74
40596;BME280;26304;48.794;9.820;2023-07-31T18:45:37;95846.22;;;21.44;61.72
40596;BME280;26304;48.794;9.820;2023-07-31T18:51:20;95840.81;;;21.74;61.38
40596;BME280;26304;48.794;9.820;2023-07-31T18:57:04;95832.88;;;21.74;61.79
40596;BME280;26304;48.794;9.820;2023-07-31T19:02:47;95815.41;;;21.81;61.62
40596;BME280;26304;48.794;9.820;2023-07-31T19:08:30;95817.72;;;21.79;62.17
40596;BME280;26304;48.794;9.820;2023-07-31T19:14:13;95824.41;;;21.36;65.90
40596;BME280;26304;48.794;9.820;2023-07-31T19:19:56;95822.72;;;21.22;66.78
40596;BME280;26304;48.794;9.820;2023-07-31T19:25:38;95832.09;;;21.03;68.62
40596;BME280;26304;48.794;9.820;2023-07-31T19:31:22;95821.72;;;21.16;68.25
40596;BME280;26304;48.794;9.820;2023-07-31T19:37:05;95822.38;;;21.20;68.13
40596;BME280;26304;48.794;9.820;2023-07-31T19:42:47;95829.03;;;21.32;67.45
40596;BME280;26304;48.794;9.820;2023-07-31T19:48:31;95812.00;;;21.33;67.09
40596;BME280;26304;48.794;9.820;2023-07-31T19:54:14;95828.72;;;21.26;67.21
40596;BME280;26304;48.794;9.820;2023-07-31T19:59:57;95822.09;;;21.14;66.75
40596;BME280;26304;48.794;9.820;2023-07-31T20:05:41;95822.72;;;20.98;67.32
40596;BME280;26304;48.794;9.820;2023-07-31T20:11:24;95810.50;;;20.81;68.04
40596;BME280;26304;48.794;9.820;2023-07-31T20:17:06;95817.91;;;20.90;68.07
40596;BME280;26304;48.794;9.820;2023-07-31T20:22:50;95817.81;;;20.70;68.95
40596;BME280;26304;48.794;9.820;2023-07-31T20:28:33;95819.88;;;20.51;70.13
40596;BME280;26304;48.794;9.820;2023-07-31T20:34:15;95815.38;;;20.48;70.61
40596;BME280;26304;48.794;9.820;2023-07-31T20:39:59;95811.00;;;20.38;70.94
40596;BME280;26304;48.794;9.820;2023-07-31T20:45:41;95791.97;;;20.50;70.56
40596;BME280;26304;48.794;9.820;2023-07-31T20:51:24;95777.31;;;20.45;70.78
40596;BME280;26304;48.794;9.820;2023-07-31T20:57:08;95778.13;;;20.42;71.28
40596;BME280;26304;48.794;9.820;2023-07-31T21:02:50;95783.44;;;20.39;71.52
40596;BME280;26304;48.794;9.820;2023-07-31T21:08:32;95769.28;;;20.25;72.71
40596;BME280;26304;48.794;9.820;2023-07-31T21:14:16;95756.88;;;20.22;72.64
40596;BME280;26304;48.794;9.820;2023-07-31T21:19:58;95738.75;;;20.24;73.25
40596;BME280;26304;48.794;9.820;2023-07-31T21:25:41;95731.97;;;20.23;73.17
40596;BME280;26304;48.794;9.820;2023-07-31T21:31:25;95719.25;;;20.14;73.43
40596;BME280;26304;48.794;9.820;2023-07-31T21:37:07;95716.16;;;20.23;73.28
40596;BME280;26304;48.794;9.820;2023-07-31T21:42:52;95699.59;;;20.19;73.25
40596;BME280;26304;48.794;9.820;2023-07-31T21:48:37;95675.06;;;20.22;72.96
40596;BME280;26304;48.794;9.820;2023-07-31T21:54:19;95669.72;;;20.26;72.90
40596;BME280;26304;48.794;9.820;2023-07-31T22:00:02;95650.31;;;20.12;74.01
40596;BME280;26304;48.794;9.820;2023-07-31T22:05:46;95647.28;;;20.14;73.37
40596;BME280;26304;48.794;9.820;2023-07-31T22:11:28;95636.81;;;20.07;73.08
40596;BME280;26304;48.794;9.820;2023-07-31T22:17:11;95614.91;;;20.10;73.43
40596;BME280;26304;48.794;9.820;2023-07-31T22:22:54;95614.22;;;20.06;74.02
40596;BME280;26304;48.794;9.820;2023-07-31T22:28:37;95584.81;;;20.04;74.03
40596;BME280;26304;48.794;9.820;2023-07-31T22:34:19;95590.06;;;20.07;73.82
40596;BME280;26304;48.794;9.820;2023-07-31T22:40:04;95567.16;;;20.01;74.81
40596;BME280;26304;48.794;9.820;2023-07-31T22:45:46;95555.59;;;19.94;75.68
40596;BME280;26304;48.794;9.820;2023-07-31T22:51:29;95544.56;;;20.00;75.29
40596;BME280;26304;48.794;9.820;2023-07-31T22:57:13;95528.44;;;19.94;76.09
40596;BME280;26304;48.794;9.820;2023-07-31T23:02:55;95525.41;;;19.95;75.98
40596;BME280;26304;48.794;9.820;2023-07-31T23:08:38;95525.53;;;19.88;75.69
40596;BME280;26304;48.794;9.820;2023-07-31T23:14:22;95529.19;;;19.94;75.79
40596;BME280;26304;48.794;9.820;2023-07-31T23:20:05;95527.50;;;19.81;76.20
40596;BME280;26304;48.794;9.820;2023-07-31T23:25:48;95519.84;;;19.59;76.10
40596;BME280;26304;48.794;9.820;2023-07-31T23:31:32;95510.59;;;19.47;74.49
40596;BME280;26304;48.794;9.820;2023-07-31T23:37:14;95511.19;;;19.58;73.77
40596;BME280;26304;48.794;9.820;2023-07-31T23:42:57;95488.78;;;19.47;73.67
40596;BME280;26304;48.794;9.820;2023-07-31T23:48:40;95485.53;;;19.35;74.23
40596;BME280;26304;48.794;9.820;2023-07-31T23:54:23;95493.34;;;19.42;73.61
